Skip Navigation LinksHome page > Weather > Current weather Skip Navigation Links

Current Weather

Dorval Intl. Apt., Montréal, P.Q.

For information only: do not use for flight planning or navigation.
Latest weather
Observation time Sunday, September 20, 2020 10:00 AM EDT
Local time Sunday, September 20, 2020 10:22 AM EDT
Flight conditions Visual Meteorological Conditions
Winds
Wind direction Northeast (40°)
Wind speed 8 mph
Visibility 30 mi.
Sky condition
Ceiling unlimited
Cloud layer few clouds 3,000 ft.
Cloud layer few clouds 24,000 ft.
Temperature 48°F
Dewpoint 36°F
Altimeter 30.61 in.Hg
Derived measurements
Relative humidity 62%
Wind chill 45°F
Density altitude -1280 ft.
Sea-level pressure 30.61 in.Hg
METAR CYUL 201400Z 04007KT 30SM FEW030 FEW240 09/02 A3061 RMK CF1CI1 CF TR CI TR SLP367

Settings

Location code

InnerDrive.Weather 4.0.6770.0 Release CLR 4.0.30319.42000
Copyright ©2018 Inner Drive Technology. All rights reserved. Portions Copyright ©1986-2018 David Braverman.

Find weather

Site navigation


Skip Navigation Links

Place info

Page info

PayPal - The safer, easier way to pay online!

Return home.

Copyright ©2020 Inner Drive Technology. Purveyors of fine, hand-crafted computer software. Page printed 2020-09-20T14:22:26 UTC.